Time;durP1;ratioP1;P1;durP2;ratioP2;P2;SDS_P1;SDS_P2;PMS_P1;PMS_P2;Temp;Humidity;BMP_temperature;BMP_pressure;BME280_temperature;BME280_humidity;BME280_pressure;Samples;Min_cycle;Max_cycle;Signal;HPM_P1;HPM_P2
2022/09/21 00:02:31;;;;;;;4.55;1.10;;;17.80;46.90;;;;;;6159216;28;20070;-82
2022/09/21 00:05:33;;;;;;;2.85;1.05;;;17.80;46.90;;;;;;6173175;28;20195;-82
2022/09/21 00:08:35;;;;;;;6.13;1.35;;;17.80;47.00;;;;;;6171835;28;20051;-82
2022/09/21 00:11:36;;;;;;;13.15;1.17;;;17.80;47.00;;;;;;6173449;28;20468;-82
2022/09/21 00:14:38;;;;;;;3.28;0.95;;;17.80;47.20;;;;;;6166669;28;20057;-82
2022/09/21 00:17:40;;;;;;;2.67;0.90;;;17.70;47.40;;;;;;6171011;28;20038;-82
2022/09/21 00:20:45;;;;;;;3.28;1.30;;;17.70;47.60;;;;;;6163055;28;20112;-82
2022/09/21 00:23:46;;;;;;;4.57;1.33;;;17.70;47.70;;;;;;6156693;28;20031;-81
2022/09/21 00:26:47;;;;;;;7.63;1.20;;;17.60;47.70;;;;;;6158432;28;20069;-80
2022/09/21 00:29:48;;;;;;;3.90;1.00;;;17.60;47.80;;;;;;6156087;28;20027;-81
2022/09/21 00:32:49;;;;;;;5.47;1.38;;;17.60;47.90;;;;;;6154496;28;20042;-82
2022/09/21 00:35:50;;;;;;;6.93;1.20;;;17.40;48.00;;;;;;6157483;28;20046;-82
2022/09/21 00:38:55;;;;;;;4.00;1.10;;;17.50;48.10;;;;;;6155695;28;20031;-81
2022/09/21 00:41:56;;;;;;;1.58;0.63;;;17.50;48.20;;;;;;6158192;28;20054;-81
2022/09/21 00:44:58;;;;;;;3.03;1.10;;;17.50;48.30;;;;;;6135918;28;20070;-81
2022/09/21 00:47:59;;;;;;;2.35;0.80;;;17.40;48.40;;;;;;6137555;28;20044;-81
2022/09/21 00:51:05;;;;;;;11.15;1.42;;;17.30;48.60;;;;;;6152899;28;20046;-81
2022/09/21 00:54:19;;;;;;;4.85;1.30;;;17.30;48.80;;;;;;6151267;28;20078;-81
2022/09/21 00:57:24;;;;;;;5.70;1.08;;;17.30;49.10;;;;;;6146780;28;20533;-81
2022/09/21 01:00:25;;;;;;;3.40;1.25;;;17.30;49.20;;;;;;6128153;28;20372;-81
2022/09/21 01:03:28;;;;;;;3.67;1.10;;;17.30;49.50;;;;;;6161604;28;20035;-81
2022/09/21 01:06:32;;;;;;;4.80;1.13;;;17.30;49.70;;;;;;6172510;28;20038;-81
2022/09/21 01:09:33;;;;;;;1.98;1.10;;;17.20;49.80;;;;;;6148220;28;20046;-81
2022/09/21 01:13:07;;;;;;;3.50;0.90;;;17.20;49.80;;;;;;6173771;28;20092;-81
2022/09/21 01:16:20;;;;;;;3.65;1.00;;;17.10;49.90;;;;;;6149272;28;20042;-81
2022/09/21 01:19:45;;;;;;;5.70;1.00;;;17.10;50.20;;;;;;6149296;28;20045;-81
2022/09/21 01:23:07;;;;;;;8.60;1.45;;;17.10;50.50;;;;;;6143567;28;20094;-81
2022/09/21 01:26:40;;;;;;;7.43;1.30;;;17.00;50.70;;;;;;6124159;28;20047;-81
2022/09/21 01:29:59;;;;;;;3.00;1.30;;;16.90;50.90;;;;;;6152301;28;20500;-81
2022/09/21 01:33:11;;;;;;;4.75;1.13;;;16.90;51.20;;;;;;6142328;28;20401;-80
2022/09/21 01:36:17;;;;;;;4.15;1.13;;;16.90;51.30;;;;;;6175268;28;20053;-80
2022/09/21 01:39:21;;;;;;;5.72;1.17;;;16.80;51.20;;;;;;6160227;28;20043;-81
2022/09/21 01:42:25;;;;;;;2.03;1.13;;;16.80;51.20;;;;;;6158277;28;20526;-82
2022/09/21 01:45:36;;;;;;;2.22;1.15;;;16.70;51.20;;;;;;6159295;28;20038;-81
2022/09/21 01:48:41;;;;;;;2.72;1.00;;;16.70;51.30;;;;;;6168723;28;20031;-81
2022/09/21 01:51:49;;;;;;;4.90;1.60;;;16.60;51.20;;;;;;6150763;28;20124;-82
2022/09/21 01:54:55;;;;;;;4.88;1.25;;;16.60;51.50;;;;;;6155248;28;20098;-81
2022/09/21 01:58:06;;;;;;;3.42;1.38;;;16.60;51.60;;;;;;6129709;28;20061;-81
2022/09/21 02:01:13;;;;;;;3.55;1.50;;;16.60;51.80;;;;;;6149563;28;20126;-82
2022/09/21 02:04:14;;;;;;;7.57;1.33;;;16.50;51.70;;;;;;6150411;28;20035;-82
2022/09/21 02:07:17;;;;;;;3.80;1.23;;;16.40;51.70;;;;;;6150324;28;20035;-81
2022/09/21 02:10:33;;;;;;;3.17;1.27;;;16.40;51.70;;;;;;6152152;28;20519;-82
2022/09/21 02:13:38;;;;;;;1.20;0.82;;;16.40;51.90;;;;;;6170790;28;20487;-82
2022/09/21 02:16:56;;;;;;;5.55;1.05;;;16.30;51.90;;;;;;6170271;28;20073;-81
2022/09/21 02:20:07;;;;;;;2.03;1.13;;;16.30;52.10;;;;;;6169871;28;20062;-82
2022/09/21 02:23:50;;;;;;;4.55;1.40;;;16.20;52.30;;;;;;6174378;28;20062;-82
2022/09/21 02:27:14;;;;;;;3.15;1.17;;;16.30;52.40;;;;;;6128809;29;20046;-82
2022/09/21 02:30:23;;;;;;;1.52;0.98;;;16.30;52.40;;;;;;6097503;29;20381;-81
2022/09/21 02:33:40;;;;;;;3.42;1.55;;;16.30;52.50;;;;;;6121154;29;20066;-82
2022/09/21 02:36:55;;;;;;;6.28;1.90;;;16.20;52.50;;;;;;6124165;29;20043;-82
2022/09/21 02:40:02;;;;;;;3.15;1.17;;;16.20;52.50;;;;;;6123579;29;20078;-82
2022/09/21 02:43:18;;;;;;;2.60;1.33;;;16.20;52.60;;;;;;6124091;29;20805;-81
2022/09/21 02:46:54;;;;;;;2.90;1.02;;;16.10;53.30;;;;;;6124041;29;20031;-81
2022/09/21 02:50:02;;;;;;;4.53;1.60;;;16.10;52.80;;;;;;6026179;29;20215;-81
2022/09/21 02:53:05;;;;;;;2.47;1.45;;;16.10;53.00;;;;;;6048956;29;20041;-80
2022/09/21 02:56:10;;;;;;;3.38;1.45;;;16.10;53.10;;;;;;6036510;29;20045;-81
2022/09/21 02:59:11;;;;;;;3.20;1.30;;;16.10;53.10;;;;;;6051198;29;20037;-81
2022/09/21 03:02:13;;;;;;;4.90;1.40;;;16.10;53.70;;;;;;6045123;29;20036;-81
2022/09/21 03:05:14;;;;;;;4.43;1.65;;;16.10;53.20;;;;;;6049262;29;20040;-82
2022/09/21 03:08:18;;;;;;;2.45;1.30;;;16.10;53.20;;;;;;6064015;29;20104;-82
2022/09/21 03:11:20;;;;;;;4.65;1.38;;;16.10;53.30;;;;;;6057465;29;20112;-82
2022/09/21 03:14:21;;;;;;;3.45;1.40;;;16.00;53.30;;;;;;6073124;29;20044;-81
2022/09/21 03:17:23;;;;;;;3.42;1.52;;;16.00;53.40;;;;;;6079569;29;20043;-81
2022/09/21 03:20:24;;;;;;;4.35;1.30;;;16.00;53.60;;;;;;6097665;29;20074;-81
2022/09/21 03:23:26;;;;;;;6.22;1.17;;;16.00;53.50;;;;;;6051052;29;20056;-81
2022/09/21 03:26:27;;;;;;;4.07;1.23;;;16.00;53.50;;;;;;6094527;28;20031;-81
2022/09/21 03:29:28;;;;;;;3.20;1.17;;;16.00;53.50;;;;;;6129800;28;20038;-81
2022/09/21 03:32:29;;;;;;;8.57;1.90;;;16.00;53.50;;;;;;6147698;28;20043;-80
2022/09/21 03:35:30;;;;;;;2.92;1.30;;;16.00;53.50;;;;;;6129844;28;20043;-82
2022/09/21 03:38:30;;;;;;;2.63;1.13;;;16.00;53.60;;;;;;6155269;28;20043;-83
2022/09/21 03:41:33;;;;;;;8.13;1.40;;;16.00;53.60;;;;;;6131055;28;20039;-82
2022/09/21 03:44:36;;;;;;;1.80;1.13;;;16.00;53.70;;;;;;6161885;28;20484;-82
2022/09/21 03:47:38;;;;;;;1.58;1.13;;;16.00;53.70;;;;;;6158739;28;20074;-81
2022/09/21 03:50:39;;;;;;;3.05;1.05;;;16.10;53.80;;;;;;6138917;28;20039;-82
2022/09/21 03:53:40;;;;;;;4.72;1.45;;;16.10;53.80;;;;;;6129896;28;20122;-81
2022/09/21 03:56:41;;;;;;;7.03;1.65;;;16.10;53.90;;;;;;6143934;28;20050;-81
2022/09/21 03:59:42;;;;;;;3.80;1.52;;;16.00;54.00;;;;;;6164250;28;20038;-81
2022/09/21 04:02:43;;;;;;;8.25;1.58;;;16.00;54.10;;;;;;6154501;28;20058;-82
2022/09/21 04:05:44;;;;;;;6.07;1.10;;;16.00;54.10;;;;;;6143613;28;20441;-81
2022/09/21 04:08:46;;;;;;;3.47;1.17;;;16.00;54.10;;;;;;6154804;28;20039;-80
2022/09/21 04:11:47;;;;;;;5.53;1.65;;;16.00;54.10;;;;;;6144749;28;20035;-80
2022/09/21 04:14:48;;;;;;;4.68;1.48;;;16.00;54.20;;;;;;6119030;28;20145;-79
2022/09/21 04:17:52;;;;;;;4.55;1.58;;;15.90;54.30;;;;;;6146418;28;20118;-81
2022/09/21 04:20:53;;;;;;;3.58;1.48;;;15.90;54.40;;;;;;6145490;28;20073;-82
2022/09/21 04:23:54;;;;;;;2.90;1.23;;;15.90;54.40;;;;;;6149415;28;20035;-82
2022/09/21 04:26:54;;;;;;;5.05;1.48;;;15.80;54.40;;;;;;6172734;28;20384;-82
2022/09/21 04:29:55;;;;;;;5.45;1.77;;;15.80;54.50;;;;;;6164143;28;20027;-81
2022/09/21 04:32:56;;;;;;;2.80;1.45;;;15.80;54.50;;;;;;6146530;28;20047;-82
2022/09/21 04:35:58;;;;;;;13.35;1.92;;;15.70;54.70;;;;;;6148547;28;20417;-81
2022/09/21 04:39:04;;;;;;;4.13;1.55;;;15.70;54.80;;;;;;6151986;28;20143;-81
2022/09/21 04:42:05;;;;;;;8.02;1.73;;;15.60;54.80;;;;;;6161779;28;20068;-82
2022/09/21 04:45:07;;;;;;;3.35;1.63;;;15.60;54.90;;;;;;6176519;28;20122;-81
2022/09/21 04:48:08;;;;;;;8.68;1.23;;;15.60;55.00;;;;;;6140580;28;20035;-81
2022/09/21 04:51:11;;;;;;;2.33;1.30;;;15.60;55.10;;;;;;6147071;28;20059;-82
2022/09/21 04:54:12;;;;;;;8.57;1.90;;;15.60;55.00;;;;;;6147513;28;20061;-81
2022/09/21 04:57:14;;;;;;;10.15;2.20;;;15.60;55.10;;;;;;6147349;28;20043;-82
2022/09/21 05:00:17;;;;;;;9.43;1.60;;;15.60;55.20;;;;;;6146729;28;20050;-83
2022/09/21 05:03:19;;;;;;;7.50;1.65;;;15.60;55.40;;;;;;6148558;28;20118;-82
2022/09/21 05:06:20;;;;;;;4.57;1.42;;;15.60;55.40;;;;;;6150429;28;20475;-79
2022/09/21 05:12:42;;;;;;;3.42;1.80;;;15.60;55.50;;;;;;6148290;28;20039;-82
2022/09/21 05:15:43;;;;;;;4.97;1.45;;;15.50;55.50;;;;;;6169389;28;20034;-81
2022/09/21 05:18:45;;;;;;;7.78;1.65;;;15.50;55.50;;;;;;6170575;28;20035;-82
2022/09/21 05:21:46;;;;;;;5.65;1.80;;;15.50;55.60;;;;;;6150970;28;20031;-82
2022/09/21 05:24:48;;;;;;;9.05;1.73;;;15.50;55.70;;;;;;6151559;28;20039;-81
2022/09/21 05:27:49;;;;;;;4.65;1.42;;;15.50;55.70;;;;;;6182831;28;20032;-81
2022/09/21 05:31:02;;;;;;;5.15;1.60;;;15.40;55.70;;;;;;6156421;28;20125;-80
2022/09/21 05:34:06;;;;;;;3.78;1.42;;;15.40;55.70;;;;;;6156265;28;20098;-80
2022/09/21 05:37:45;;;;;;;3.63;1.60;;;15.40;55.70;;;;;;6136040;28;20047;-81
2022/09/21 05:40:49;;;;;;;6.57;2.08;;;15.40;55.80;;;;;;6079987;29;20450;-81
2022/09/21 05:43:50;;;;;;;6.93;1.80;;;15.40;55.80;;;;;;6103603;29;20469;-82
2022/09/21 05:47:35;;;;;;;6.38;1.88;;;15.40;55.80;;;;;;6088671;29;20545;-81
2022/09/21 05:50:57;;;;;;;7.30;1.77;;;15.40;56.00;;;;;;6022698;29;20056;-82
2022/09/21 05:54:12;;;;;;;8.93;2.65;;;15.40;56.00;;;;;;6020102;29;20109;-82
2022/09/21 05:57:38;;;;;;;6.43;1.80;;;15.40;56.10;;;;;;6012975;29;20057;-81
2022/09/21 06:00:56;;;;;;;6.07;1.70;;;15.30;56.10;;;;;;5997099;29;20357;-81
2022/09/21 06:04:00;;;;;;;3.63;1.83;;;15.30;56.10;;;;;;6021260;29;20159;-81
2022/09/21 06:07:01;;;;;;;3.55;1.80;;;15.40;56.20;;;;;;5999873;29;20409;-82
2022/09/21 06:10:03;;;;;;;11.05;2.28;;;15.40;56.30;;;;;;6012791;29;20053;-81
2022/09/21 06:13:04;;;;;;;10.88;2.03;;;15.40;56.30;;;;;;6016492;29;20125;-81
2022/09/21 06:16:05;;;;;;;4.18;1.83;;;15.40;56.30;;;;;;6011023;29;20034;-82
2022/09/21 06:19:10;;;;;;;4.03;1.55;;;15.40;56.30;;;;;;6054380;29;20124;-82
2022/09/21 06:22:11;;;;;;;4.50;2.15;;;15.50;56.30;;;;;;6029446;29;20037;-80
2022/09/21 06:25:12;;;;;;;4.43;1.40;;;15.40;56.20;;;;;;6135321;28;20046;-82
2022/09/21 06:28:13;;;;;;;4.97;1.77;;;15.50;56.20;;;;;;6149086;28;20093;-81
2022/09/21 06:31:14;;;;;;;3.38;1.58;;;15.40;56.10;;;;;;6130499;28;20057;-82
2022/09/21 06:34:15;;;;;;;4.05;1.95;;;15.50;56.00;;;;;;6153351;28;20098;-82
2022/09/21 06:37:16;;;;;;;7.00;1.90;;;15.50;55.90;;;;;;6130457;28;20094;-80
2022/09/21 06:40:17;;;;;;;4.45;1.67;;;15.50;55.80;;;;;;6148861;28;20063;-80
2022/09/21 06:43:19;;;;;;;11.75;1.90;;;15.60;55.80;;;;;;6148772;28;20093;-81
2022/09/21 06:46:20;;;;;;;8.13;1.67;;;15.60;55.80;;;;;;6158109;28;20038;-80
2022/09/21 06:49:21;;;;;;;9.48;2.85;;;15.60;55.80;;;;;;6155774;28;20180;-80
2022/09/21 06:52:22;;;;;;;9.13;2.53;;;15.70;55.80;;;;;;6123880;28;20467;-81
2022/09/21 06:55:23;;;;;;;6.18;2.40;;;15.70;55.60;;;;;;6148361;28;20110;-82
2022/09/21 06:58:24;;;;;;;16.20;2.63;;;15.80;55.50;;;;;;6147491;28;20078;-83
2022/09/21 07:01:25;;;;;;;8.82;2.40;;;15.80;55.40;;;;;;6147774;28;20045;-81
2022/09/21 07:04:28;;;;;;;7.40;2.58;;;15.80;55.40;;;;;;6147201;28;20090;-81
2022/09/21 07:07:30;;;;;;;9.45;2.38;;;15.80;55.30;;;;;;6167181;28;20081;-81
2022/09/21 07:10:31;;;;;;;9.50;2.28;;;15.90;55.30;;;;;;6148133;28;20485;-81
2022/09/21 07:13:32;;;;;;;4.53;2.13;;;15.90;55.10;;;;;;6131974;28;20035;-81
2022/09/21 07:16:33;;;;;;;4.78;2.30;;;16.00;55.00;;;;;;6149757;28;20515;-81
2022/09/21 07:19:35;;;;;;;12.60;2.67;;;16.00;54.80;;;;;;6159188;28;20054;-81
2022/09/21 07:22:36;;;;;;;11.50;2.20;;;16.10;54.70;;;;;;6167520;28;20797;-81
2022/09/21 07:25:37;;;;;;;16.55;2.88;;;16.20;54.60;;;;;;6168740;28;20249;-80
2022/09/21 07:28:39;;;;;;;11.05;1.73;;;16.30;54.40;;;;;;6152615;28;20035;-82
2022/09/21 07:31:43;;;;;;;6.35;1.80;;;16.30;54.10;;;;;;6145317;28;20508;-81
2022/09/21 07:34:45;;;;;;;8.02;2.20;;;16.40;53.80;;;;;;6158275;28;20052;-82
2022/09/21 07:37:46;;;;;;;2.85;1.77;;;16.40;53.60;;;;;;6172232;28;20047;-81
2022/09/21 07:40:47;;;;;;;8.60;1.60;;;16.50;53.50;;;;;;6139202;28;20035;-82
2022/09/21 07:43:48;;;;;;;4.90;1.90;;;16.50;53.20;;;;;;6154893;28;20122;-81
2022/09/21 07:46:50;;;;;;;6.75;1.98;;;16.60;53.10;;;;;;6166933;28;20483;-82
2022/09/21 07:49:51;;;;;;;4.05;1.90;;;16.70;53.00;;;;;;6152818;28;20035;-82
2022/09/21 07:52:52;;;;;;;9.73;1.95;;;16.90;52.80;;;;;;6162526;28;20069;-81
2022/09/21 07:56:01;;;;;;;2.72;1.55;;;17.00;52.40;;;;;;6167489;28;20039;-82
2022/09/21 07:59:06;;;;;;;3.58;1.65;;;17.10;52.20;;;;;;6129891;28;20078;-81
2022/09/21 08:02:07;;;;;;;7.45;2.03;;;17.30;52.00;;;;;;6145712;28;20613;-81
2022/09/21 08:05:08;;;;;;;2.78;1.75;;;17.40;51.50;;;;;;6154674;28;20051;-83
2022/09/21 08:08:09;;;;;;;5.28;2.28;;;17.50;50.90;;;;;;6151877;28;20051;-83
2022/09/21 08:11:10;;;;;;;5.10;1.80;;;17.40;50.60;;;;;;6150555;28;20465;-84
2022/09/21 08:14:18;;;;;;;5.47;1.35;;;17.60;50.50;;;;;;6148484;28;20043;-84
2022/09/21 08:17:19;;;;;;;6.07;2.07;;;17.70;50.20;;;;;;6168947;28;20515;-83
2022/09/21 08:20:25;;;;;;;6.00;1.67;;;17.90;49.90;;;;;;6158581;28;20273;-83
2022/09/21 08:23:27;;;;;;;5.95;1.83;;;18.00;49.80;;;;;;6156351;28;20039;-82
2022/09/21 08:26:28;;;;;;;4.03;1.73;;;18.10;49.60;;;;;;6167714;28;20328;-83
2022/09/21 08:29:31;;;;;;;7.18;2.00;;;18.20;49.50;;;;;;6166589;28;20043;-82
2022/09/21 08:32:32;;;;;;;5.70;2.42;;;18.40;49.10;;;;;;6146282;28;20050;-85
2022/09/21 08:35:35;;;;;;;6.47;1.40;;;18.60;48.60;;;;;;6159010;28;20043;-84
2022/09/21 08:38:38;;;;;;;4.18;1.50;;;18.70;48.00;;;;;;6159499;28;20039;-83
2022/09/21 08:42:09;;;;;;;5.88;1.73;;;18.80;47.90;;;;;;6169270;28;20464;-84
2022/09/21 08:45:17;;;;;;;6.72;1.98;;;18.80;47.70;;;;;;6164754;28;20045;-83
2022/09/21 08:48:32;;;;;;;4.43;1.85;;;18.90;47.70;;;;;;6146320;28;20031;-85
2022/09/21 08:51:37;;;;;;;7.15;1.50;;;19.10;47.50;;;;;;6102762;28;20057;-85
2022/09/21 08:54:50;;;;;;;6.10;1.65;;;19.20;47.40;;;;;;6118828;28;20043;-82
2022/09/21 08:57:53;;;;;;;7.75;3.60;;;19.30;46.80;;;;;;6145827;28;20043;-88
2022/09/21 09:01:07;;;;;;;7.63;2.95;;;19.50;46.40;;;;;;6135854;28;20047;-85
2022/09/21 09:04:15;;;;;;;13.18;5.15;;;19.50;46.10;;;;;;6146424;28;20035;-83
2022/09/21 09:07:39;;;;;;;12.52;4.65;;;19.50;45.70;;;;;;6133735;28;20041;-81
2022/09/21 09:11:04;;;;;;;22.73;9.60;;;19.50;45.50;;;;;;6166523;28;20050;-83
2022/09/21 09:14:43;;;;;;;16.77;1.85;;;19.50;45.50;;;;;;6161675;28;20059;-84
2022/09/21 09:18:13;;;;;;;10.83;3.00;;;19.50;45.70;;;;;;6157567;28;20091;-82
2022/09/21 09:21:40;;;;;;;5.13;2.05;;;19.60;45.60;;;;;;6164042;28;20109;-83
2022/09/21 09:24:48;;;;;;;15.65;5.60;;;19.70;45.40;;;;;;6168903;28;20377;-79
2022/09/21 09:27:58;;;;;;;8.18;2.35;;;19.80;45.20;;;;;;6148479;28;20413;-80
2022/09/21 09:31:28;;;;;;;6.55;1.55;;;19.90;44.80;;;;;;6131573;28;20043;-79
2022/09/21 09:34:34;;;;;;;3.92;1.60;;;20.00;44.70;;;;;;6079104;29;20119;-79
2022/09/21 09:37:39;;;;;;;6.55;1.50;;;19.90;44.00;;;;;;6089917;29;20048;-79
2022/09/21 09:41:09;;;;;;;5.72;1.50;;;20.00;44.20;;;;;;6092090;29;20043;-76
2022/09/21 09:44:35;;;;;;;8.43;2.00;;;20.10;44.10;;;;;;6089297;29;20084;-78
2022/09/21 09:47:51;;;;;;;12.40;1.60;;;20.20;43.70;;;;;;6083284;29;20402;-78
2022/09/21 09:50:52;;;;;;;2.75;1.10;;;20.20;43.60;;;;;;6076893;29;20695;-78
2022/09/21 09:53:58;;;;;;;4.55;2.28;;;20.30;43.30;;;;;;6097702;29;20123;-78
2022/09/21 09:57:03;;;;;;;9.00;1.73;;;20.30;42.90;;;;;;6099725;29;20046;-76
2022/09/21 10:00:11;;;;;;;3.97;1.70;;;20.40;43.00;;;;;;6082640;29;20047;-78
2022/09/21 10:03:18;;;;;;;5.13;1.35;;;20.50;42.90;;;;;;6069243;29;20036;-79
2022/09/21 10:06:30;;;;;;;11.20;2.58;;;20.60;42.70;;;;;;6100417;29;20048;-78
2022/09/21 10:09:33;;;;;;;4.00;1.38;;;20.70;42.60;;;;;;6101366;29;20048;-79
2022/09/21 10:12:34;;;;;;;3.60;1.60;;;20.80;42.10;;;;;;6160782;28;20047;-78
2022/09/21 10:15:41;;;;;;;4.68;1.30;;;20.80;41.90;;;;;;6150472;28;20039;-78
2022/09/21 10:18:55;;;;;;;4.60;1.30;;;20.90;41.70;;;;;;6149851;28;20032;-78
2022/09/21 10:21:58;;;;;;;8.13;2.08;;;20.90;41.50;;;;;;6151410;28;20087;-77
2022/09/21 10:25:04;;;;;;;4.07;1.25;;;20.80;41.20;;;;;;6155604;28;20472;-78
2022/09/21 10:28:06;;;;;;;2.28;1.27;;;20.90;41.20;;;;;;6157473;28;20050;-78
2022/09/21 10:31:11;;;;;;;6.40;1.20;;;21.00;41.10;;;;;;6148038;28;20054;-78
2022/09/21 10:34:13;;;;;;;5.03;2.10;;;21.30;41.00;;;;;;6148438;28;20141;-80
2022/09/21 10:37:33;;;;;;;2.15;1.17;;;21.70;40.50;;;;;;6169694;28;20105;-79
2022/09/21 10:40:38;;;;;;;8.05;1.98;;;22.10;39.90;;;;;;6146488;28;20039;-81
2022/09/21 10:43:44;;;;;;;3.65;1.67;;;22.30;38.90;;;;;;6147077;28;20491;-78
2022/09/21 10:46:46;;;;;;;22.10;7.07;;;22.40;38.50;;;;;;6163947;28;20050;-76
2022/09/21 10:49:57;;;;;;;5.05;1.70;;;22.60;38.50;;;;;;6155206;28;20035;-79
2022/09/21 10:53:27;;;;;;;4.13;1.55;;;22.90;37.90;;;;;;6155095;28;20116;-81
2022/09/21 10:56:28;;;;;;;6.57;1.67;;;23.00;37.50;;;;;;6161403;28;20420;-81
2022/09/21 10:59:35;;;;;;;4.28;1.63;;;23.40;37.40;;;;;;6158214;28;20035;-79
2022/09/21 11:02:37;;;;;;;4.65;1.65;;;23.60;36.90;;;;;;6149943;28;20027;-81
2022/09/21 11:05:40;;;;;;;4.65;1.70;;;23.80;36.60;;;;;;6150837;28;20032;-79
2022/09/21 11:09:13;;;;;;;7.70;2.08;;;23.80;36.30;;;;;;6152942;28;20126;-79
2022/09/21 11:12:17;;;;;;;9.65;1.80;;;23.90;36.40;;;;;;6055440;29;20051;-79
2022/09/21 11:15:27;;;;;;;4.03;1.80;;;24.10;36.20;;;;;;6060137;29;20507;-79
2022/09/21 11:18:40;;;;;;;4.95;1.75;;;24.20;36.20;;;;;;6060293;29;20103;-78
2022/09/21 11:22:07;;;;;;;2.63;1.23;;;24.40;35.90;;;;;;6049430;29;20363;-79
2022/09/21 11:25:11;;;;;;;4.45;1.60;;;24.60;35.40;;;;;;6051505;29;20047;-80
2022/09/21 11:28:28;;;;;;;8.93;1.73;;;24.70;34.90;;;;;;6068038;29;20056;-80
2022/09/21 11:31:41;;;;;;;6.00;1.67;;;24.90;34.70;;;;;;6066340;29;20043;-80
2022/09/21 11:34:54;;;;;;;5.07;1.65;;;25.20;34.10;;;;;;6058002;29;20048;-81
2022/09/21 11:38:06;;;;;;;8.75;1.98;;;25.50;33.80;;;;;;6053637;29;20077;-81
2022/09/21 11:41:44;;;;;;;6.90;1.63;;;25.60;33.40;;;;;;6075654;29;20052;-80
2022/09/21 11:44:54;;;;;;;12.52;1.42;;;25.80;32.90;;;;;;6069853;29;20079;-80
2022/09/21 11:48:10;;;;;;;6.18;1.40;;;26.00;32.60;;;;;;6087276;28;20043;-80
2022/09/21 11:51:36;;;;;;;21.92;2.03;;;26.10;32.40;;;;;;6147365;28;20555;-80
2022/09/21 11:54:43;;;;;;;9.18;1.38;;;26.30;32.30;;;;;;6138941;28;20114;-80
2022/09/21 11:58:14;;;;;;;12.38;1.55;;;26.60;31.50;;;;;;6145801;28;20035;-79
2022/09/21 12:01:33;;;;;;;4.55;1.33;;;27.00;31.10;;;;;;6151830;28;20038;-79
2022/09/21 12:05:02;;;;;;;1.75;0.95;;;27.20;30.80;;;;;;6140546;28;20116;-80
2022/09/21 12:08:27;;;;;;;4.28;1.08;;;27.50;30.60;;;;;;6151364;28;20106;-79
2022/09/21 12:11:31;;;;;;;5.18;1.00;;;27.80;30.70;;;;;;6145601;28;20043;-80
2022/09/21 12:14:36;;;;;;;5.78;1.30;;;28.30;29.80;;;;;;6146635;28;20369;-80
2022/09/21 12:17:40;;;;;;;8.75;1.20;;;28.80;29.20;;;;;;6155575;28;20031;-79
2022/09/21 12:21:10;;;;;;;3.20;1.08;;;29.20;28.60;;;;;;6143391;28;20058;-80
2022/09/21 12:24:22;;;;;;;3.78;1.05;;;29.70;28.20;;;;;;6141437;28;20206;-79
2022/09/21 12:27:36;;;;;;;4.88;1.50;;;30.40;27.60;;;;;;6174137;28;20038;-80
2022/09/21 12:30:40;;;;;;;3.10;1.10;;;30.80;27.10;;;;;;6159656;28;20035;-80
2022/09/21 12:33:50;;;;;;;5.50;1.27;;;31.20;26.80;;;;;;6152123;28;20102;-80
2022/09/21 12:37:06;;;;;;;6.05;1.30;;;31.60;26.30;;;;;;6143416;28;20030;-81
2022/09/21 12:40:23;;;;;;;2.50;1.08;;;32.20;25.90;;;;;;6129804;28;20122;-81
2022/09/21 12:43:55;;;;;;;10.27;1.35;;;32.60;25.60;;;;;;6142140;28;20543;-80
2022/09/21 12:47:12;;;;;;;7.20;1.55;;;33.00;25.10;;;;;;6071899;29;20037;-81
2022/09/21 12:50:36;;;;;;;6.38;1.30;;;33.50;24.50;;;;;;6037107;29;20037;-80
2022/09/21 12:53:41;;;;;;;7.47;1.38;;;32.90;24.50;;;;;;6060765;29;20065;-81
2022/09/21 12:57:24;;;;;;;4.03;1.17;;;32.00;25.20;;;;;;6070667;29;20045;-80
2022/09/21 13:00:33;;;;;;;7.35;1.17;;;31.50;25.80;;;;;;6052142;29;20048;-80
2022/09/21 13:03:54;;;;;;;8.65;1.13;;;32.00;25.40;;;;;;6039575;29;20100;-81
2022/09/21 13:07:29;;;;;;;16.25;1.65;;;32.40;24.70;;;;;;6045580;29;20048;-81
2022/09/21 13:10:54;;;;;;;3.30;1.20;;;32.60;24.70;;;;;;6070151;29;20083;-81
2022/09/21 13:14:13;;;;;;;10.93;1.30;;;32.90;24.40;;;;;;6057964;29;20120;-81
2022/09/21 13:17:25;;;;;;;3.08;0.98;;;32.90;24.30;;;;;;6055168;29;20124;-81
2022/09/21 13:20:34;;;;;;;5.45;1.20;;;32.90;24.20;;;;;;6062942;29;20047;-81
2022/09/21 13:23:40;;;;;;;5.97;1.40;;;32.70;24.00;;;;;;6099790;28;20043;-81
2022/09/21 13:26:50;;;;;;;4.20;1.17;;;32.20;24.40;;;;;;6145120;28;20090;-80
2022/09/21 13:30:18;;;;;;;24.85;1.73;;;31.40;25.20;;;;;;6140573;28;20062;-80
2022/09/21 13:33:21;;;;;;;7.82;1.15;;;30.30;26.10;;;;;;6141570;28;20130;-82
2022/09/21 13:36:34;;;;;;;3.22;1.30;;;29.60;27.00;;;;;;6139004;28;20055;-79
2022/09/21 13:39:35;;;;;;;4.93;1.15;;;28.80;27.70;;;;;;6138944;28;20547;-80
2022/09/21 13:42:36;;;;;;;4.28;1.20;;;28.00;28.40;;;;;;6146132;28;20035;-80
2022/09/21 13:45:38;;;;;;;3.92;1.30;;;27.50;29.10;;;;;;6127058;28;20031;-80
2022/09/21 13:48:39;;;;;;;5.30;1.38;;;27.00;29.70;;;;;;6168116;28;20027;-79
2022/09/21 13:52:04;;;;;;;2.88;1.02;;;26.50;30.20;;;;;;6150338;28;20031;-80
2022/09/21 13:55:28;;;;;;;14.30;1.30;;;26.10;30.80;;;;;;6147348;28;20039;-81
2022/09/21 13:58:33;;;;;;;9.35;1.02;;;25.90;31.40;;;;;;6151860;28;20681;-79
2022/09/21 14:01:35;;;;;;;6.35;1.08;;;25.70;31.90;;;;;;6152143;28;20487;-80
2022/09/21 14:04:38;;;;;;;2.72;1.27;;;25.50;32.20;;;;;;6159481;28;20101;-81
2022/09/21 14:07:39;;;;;;;3.70;1.05;;;25.30;32.60;;;;;;6111326;28;20047;-79
2022/09/21 14:11:09;;;;;;;4.40;1.40;;;25.20;32.90;;;;;;6164604;28;20042;-80
2022/09/21 14:14:11;;;;;;;2.13;1.20;;;25.00;33.20;;;;;;6160102;28;20054;-80
2022/09/21 14:17:34;;;;;;;2.63;1.05;;;24.90;33.40;;;;;;6160093;28;20031;-80
2022/09/21 14:20:36;;;;;;;7.30;1.30;;;24.80;33.80;;;;;;6140240;28;20083;-79
2022/09/21 14:23:38;;;;;;;5.60;1.60;;;24.70;34.00;;;;;;6131072;28;20035;-79
2022/09/21 14:26:40;;;;;;;5.05;1.10;;;24.50;34.20;;;;;;6166805;28;20045;-81
2022/09/21 14:29:53;;;;;;;2.85;1.08;;;24.70;34.30;;;;;;6167350;28;20058;-80
2022/09/21 14:32:59;;;;;;;4.28;1.52;;;24.70;34.50;;;;;;6160637;28;20038;-81
2022/09/21 14:36:07;;;;;;;2.38;1.10;;;24.60;34.70;;;;;;6156037;28;20066;-80
2022/09/21 14:39:20;;;;;;;8.50;1.33;;;24.60;34.80;;;;;;6156481;28;20090;-80
2022/09/21 14:42:27;;;;;;;7.30;1.30;;;24.50;34.90;;;;;;6146776;28;20374;-81
2022/09/21 14:46:06;;;;;;;5.25;1.23;;;24.50;35.10;;;;;;6145698;28;20059;-80
2022/09/21 14:49:21;;;;;;;4.03;1.20;;;24.50;35.20;;;;;;6151940;28;20114;-80
2022/09/21 14:52:37;;;;;;;4.65;1.20;;;24.50;35.20;;;;;;6153218;28;20058;-80
2022/09/21 14:55:46;;;;;;;8.90;1.60;;;24.50;35.20;;;;;;6144510;28;20593;-81
2022/09/21 14:59:11;;;;;;;6.65;1.25;;;24.50;35.20;;;;;;6127766;28;20058;-80
2022/09/21 15:02:23;;;;;;;1.55;1.27;;;24.40;35.30;;;;;;6147384;28;20039;-80
2022/09/21 15:05:39;;;;;;;2.15;1.23;;;24.40;35.40;;;;;;6132646;28;20127;-80
2022/09/21 15:12:59;;;;;;;4.22;1.45;;;24.30;35.60;;;;;;6148078;28;20035;-80
2022/09/21 15:16:10;;;;;;;8.32;1.48;;;24.40;35.80;;;;;;6145229;28;20047;-80
2022/09/21 15:19:25;;;;;;;6.07;1.30;;;24.40;35.70;;;;;;6155144;28;20027;-80
2022/09/21 15:22:27;;;;;;;5.50;1.60;;;24.30;35.80;;;;;;6165476;28;20039;-80
2022/09/21 15:25:32;;;;;;;5.10;1.30;;;24.30;35.80;;;;;;6156519;28;20027;-81
2022/09/21 15:28:41;;;;;;;5.65;1.23;;;24.30;35.80;;;;;;6170752;28;20026;-80
2022/09/21 15:31:44;;;;;;;2.58;1.20;;;24.30;35.80;;;;;;6152303;28;20058;-79
2022/09/21 15:34:45;;;;;;;3.17;0.80;;;24.30;35.90;;;;;;6149598;28;20498;-80
2022/09/21 15:37:47;;;;;;;3.15;1.27;;;24.30;36.20;;;;;;6158674;28;20039;-80
2022/09/21 15:40:49;;;;;;;10.15;1.58;;;24.40;36.20;;;;;;6140493;28;20046;-80
2022/09/21 15:43:59;;;;;;;7.60;1.35;;;24.30;36.20;;;;;;6169147;28;20081;-80
2022/09/21 15:47:01;;;;;;;2.28;1.23;;;24.30;36.30;;;;;;6167730;28;20077;-81
2022/09/21 15:50:04;;;;;;;5.10;1.45;;;24.30;36.40;;;;;;6151804;28;20376;-79
2022/09/21 15:53:14;;;;;;;1.55;1.23;;;24.30;36.20;;;;;;6157420;28;20487;-79
2022/09/21 15:56:24;;;;;;;6.72;1.27;;;24.30;36.40;;;;;;6148857;28;20122;-81
2022/09/21 15:59:26;;;;;;;5.60;1.20;;;24.30;36.30;;;;;;6164842;28;20415;-80
2022/09/21 16:02:36;;;;;;;3.78;1.30;;;24.30;36.30;;;;;;6145315;28;20070;-80
2022/09/21 16:05:49;;;;;;;8.18;1.13;;;24.30;36.30;;;;;;6156114;28;20057;-80
2022/09/21 16:08:50;;;;;;;4.18;1.30;;;24.30;36.30;;;;;;6134698;28;20043;-80
2022/09/21 16:11:52;;;;;;;9.00;1.20;;;24.30;36.30;;;;;;6169850;28;20042;-79
2022/09/21 16:15:22;;;;;;;2.90;1.38;;;24.30;36.20;;;;;;6147746;28;20047;-80
2022/09/21 16:18:46;;;;;;;6.22;1.20;;;24.30;36.30;;;;;;6146621;28;20044;-79
2022/09/21 16:21:47;;;;;;;4.03;1.25;;;24.30;36.50;;;;;;6150297;28;20062;-81
2022/09/21 16:24:51;;;;;;;3.88;1.40;;;24.20;36.60;;;;;;6145258;28;20047;-80
2022/09/21 16:27:58;;;;;;;9.50;2.33;;;24.10;36.70;;;;;;6162049;28;20113;-80